createdAt,value
2022-09-07T00:00:06.499Z,66.29
2022-09-07T00:02:33.667Z,66.47
2022-09-07T00:05:00.791Z,66.27
2022-09-07T00:07:27.918Z,66.45
2022-09-07T00:09:55.013Z,66.21
2022-09-07T00:12:22.131Z,66.16
2022-09-07T00:14:49.250Z,65.78
2022-09-07T00:17:16.451Z,65.72
2022-09-07T00:19:43.631Z,65.60
2022-09-07T00:22:10.711Z,65.48
2022-09-07T00:24:37.911Z,65.59
2022-09-07T00:27:05.192Z,66.29
2022-09-07T00:29:32.331Z,66.65
2022-09-07T00:31:59.430Z,66.46
2022-09-07T00:34:26.532Z,66.52
2022-09-07T00:36:53.691Z,66.53
2022-09-07T00:39:20.851Z,66.63
2022-09-07T00:41:48.131Z,67.02
2022-09-07T00:44:43.079Z,66.93
2022-09-07T00:47:18.310Z,66.92
2022-09-07T00:49:49.330Z,66.64
2022-09-07T00:52:19.332Z,67.09
2022-09-07T00:54:49.420Z,66.97
2022-09-07T00:57:16.730Z,66.96
2022-09-07T00:59:48.154Z,66.66
2022-09-07T01:02:17.602Z,66.93
2022-09-07T01:04:48.710Z,66.81
2022-09-07T01:07:15.890Z,66.97
2022-09-07T01:09:45.532Z,67.15
2022-09-07T01:12:12.658Z,67.16
2022-09-07T01:14:50.731Z,67.03
2022-09-07T01:17:36.238Z,67.05
2022-09-07T01:20:40.213Z,67.31
2022-09-07T01:23:19.511Z,67.11
2022-09-07T01:26:23.650Z,67.35
2022-09-07T01:29:16.374Z,66.91
2022-09-07T01:32:05.650Z,66.96
2022-09-07T01:34:32.950Z,66.84
2022-09-07T01:37:15.299Z,66.63
2022-09-07T01:39:45.341Z,66.82
2022-09-07T01:42:18.112Z,66.65
2022-09-07T01:44:56.731Z,67.31
2022-09-07T01:47:49.833Z,67.28
2022-09-07T01:50:56.091Z,66.94
2022-09-07T01:53:50.944Z,66.82
2022-09-07T01:56:33.850Z,66.98
2022-09-07T01:59:09.891Z,67.25
2022-09-07T02:01:50.498Z,67.30
2022-09-07T02:04:28.211Z,66.93
2022-09-07T02:07:46.291Z,67.07
2022-09-07T02:10:27.171Z,67.41
2022-09-07T02:13:02.214Z,67.47
2022-09-07T02:15:43.541Z,67.08
2022-09-07T02:18:14.166Z,66.95
2022-09-07T02:20:48.599Z,67.92
2022-09-07T02:23:24.350Z,67.78
2022-09-07T02:25:59.333Z,67.56
2022-09-07T02:28:33.282Z,67.54
2022-09-07T02:31:00.962Z,67.58
2022-09-07T02:33:29.330Z,67.78
2022-09-07T02:35:57.718Z,67.70
2022-09-07T02:38:26.052Z,67.14
2022-09-07T02:40:59.270Z,67.19
2022-09-07T02:43:28.073Z,67.15
2022-09-07T02:46:23.639Z,67.06
2022-09-07T02:49:12.314Z,67.47
2022-09-07T02:51:52.231Z,67.23
2022-09-07T02:54:45.590Z,67.38
2022-09-07T02:57:44.270Z,67.44
2022-09-07T03:00:18.211Z,67.74
2022-09-07T03:02:52.710Z,67.76
2022-09-07T03:05:24.958Z,67.75
2022-09-07T03:08:04.398Z,67.48
2022-09-07T03:10:32.130Z,67.40
2022-09-07T03:12:59.213Z,67.92
2022-09-07T03:15:28.130Z,67.70
2022-09-07T03:17:55.398Z,67.82
2022-09-07T03:20:23.371Z,67.48
2022-09-07T03:22:52.815Z,67.69
2022-09-07T03:25:20.299Z,67.55
2022-09-07T03:27:47.352Z,67.64
2022-09-07T03:30:14.799Z,67.99
2022-09-07T03:32:41.970Z,67.49
2022-09-07T03:35:09.710Z,67.57
2022-09-07T03:37:37.512Z,68.23
2022-09-07T03:40:10.037Z,67.73
2022-09-07T03:42:38.270Z,67.67
2022-09-07T03:45:06.890Z,67.72
2022-09-07T03:47:35.609Z,68.33
2022-09-07T03:50:03.471Z,68.54
2022-09-07T03:52:30.592Z,68.46
2022-09-07T03:54:57.890Z,67.86
2022-09-07T03:57:25.010Z,67.94
2022-09-07T03:59:52.070Z,68.18
2022-09-07T04:02:19.614Z,68.12
2022-09-07T04:04:46.792Z,67.63
2022-09-07T04:07:14.690Z,67.89
2022-09-07T04:09:42.173Z,67.69
2022-09-07T04:12:09.370Z,67.65
2022-09-07T04:14:36.444Z,67.75
2022-09-07T04:17:03.803Z,67.85
2022-09-07T04:19:31.253Z,67.92
2022-09-07T04:21:58.373Z,67.72
2022-09-07T04:24:25.533Z,67.73
2022-09-07T04:26:52.776Z,68.04
2022-09-07T04:29:19.853Z,68.17
2022-09-07T04:31:46.995Z,68.38
2022-09-07T04:34:14.866Z,68.51
2022-09-07T04:36:41.904Z,68.74
2022-09-07T04:39:10.313Z,68.56
2022-09-07T04:41:37.642Z,68.62
2022-09-07T04:44:05.417Z,68.90
2022-09-07T04:46:35.267Z,68.07
2022-09-07T04:49:08.878Z,68.89
2022-09-07T04:51:37.803Z,68.68
2022-09-07T04:57:00.135Z,69.91
2022-09-07T04:59:27.344Z,69.21
2022-09-07T05:01:54.430Z,69.26
2022-09-07T05:04:21.563Z,68.69
2022-09-07T05:06:48.632Z,68.70
2022-09-07T05:09:15.642Z,68.42
2022-09-07T05:11:43.215Z,68.27
2022-09-07T05:14:10.572Z,68.65
2022-09-07T05:16:37.718Z,68.37
2022-09-07T05:19:05.555Z,68.23
2022-09-07T05:21:34.327Z,68.17
2022-09-07T05:24:02.617Z,68.10
2022-09-07T05:26:31.702Z,68.02
2022-09-07T05:31:50.068Z,67.94
2022-09-07T05:34:33.420Z,68.09
2022-09-07T05:37:01.718Z,67.81
2022-09-07T05:39:29.246Z,67.96
2022-09-07T05:41:57.063Z,67.58
2022-09-07T05:47:11.701Z,67.67
2022-09-07T05:49:38.850Z,67.60
2022-09-07T05:52:06.033Z,67.47
2022-09-07T05:54:33.136Z,67.66
2022-09-07T05:57:00.155Z,67.43
2022-09-07T05:59:27.304Z,67.13
2022-09-07T06:01:54.519Z,66.69
2022-09-07T06:04:21.616Z,66.61
2022-09-07T06:07:17.603Z,66.57
2022-09-07T06:09:35.928Z,66.76
2022-09-07T06:12:05.683Z,66.49
2022-09-07T06:14:34.032Z,66.08
2022-09-07T06:17:01.234Z,66.57
2022-09-07T06:19:28.313Z,66.80
2022-09-07T06:21:55.423Z,66.89
2022-09-07T06:24:22.591Z,67.06
2022-09-07T06:26:49.614Z,66.79
2022-09-07T06:29:16.792Z,66.70
2022-09-07T06:34:31.195Z,65.82
2022-09-07T06:36:59.237Z,65.29
2022-09-07T06:39:26.303Z,65.67
2022-09-07T06:42:00.699Z,65.64
2022-09-07T06:44:31.274Z,64.88
2022-09-07T06:49:28.700Z,64.31
2022-09-07T06:51:55.795Z,63.48
2022-09-07T06:57:10.261Z,63.52
2022-09-07T06:59:38.510Z,63.37
2022-09-07T07:02:07.169Z,63.68
2022-09-07T07:04:40.259Z,63.13
2022-09-07T07:07:12.641Z,63.03
2022-09-07T07:09:41.361Z,62.33
2022-09-07T07:12:08.733Z,62.56
2022-09-07T07:14:39.754Z,62.69
2022-09-07T07:17:08.423Z,62.23
2022-09-07T07:19:35.440Z,62.03
2022-09-07T07:22:18.343Z,62.00
2022-09-07T07:24:49.557Z,61.68
2022-09-07T07:27:16.873Z,61.88
2022-09-07T07:29:43.914Z,60.96
2022-09-07T07:32:10.992Z,60.63
2022-09-07T07:34:38.104Z,60.19
2022-09-07T07:37:05.344Z,60.47
2022-09-07T07:42:21.214Z,60.43
2022-09-07T07:44:48.822Z,59.85
2022-09-07T07:47:15.921Z,59.76
2022-09-07T07:49:42.999Z,59.20
2022-09-07T07:54:57.153Z,59.52
2022-09-07T07:57:24.382Z,59.14
2022-09-07T07:59:51.432Z,57.96
2022-09-07T08:02:18.703Z,56.88
2022-09-07T08:04:45.853Z,56.28
2022-09-07T08:07:12.996Z,56.76
2022-09-07T08:09:44.653Z,56.24
2022-09-07T08:12:14.153Z,55.91
2022-09-07T08:14:41.895Z,55.32
2022-09-07T08:17:14.254Z,54.85
2022-09-07T08:19:41.612Z,55.09
2022-09-07T08:22:09.986Z,54.34
2022-09-07T08:24:36.993Z,53.74
2022-09-07T08:27:04.593Z,53.69
2022-09-07T08:29:34.566Z,53.76
2022-09-07T08:32:04.213Z,53.09
2022-09-07T08:34:31.471Z,54.02
2022-09-07T08:36:58.556Z,53.53
2022-09-07T08:39:25.645Z,53.91
2022-09-07T08:42:21.722Z,54.06
2022-09-07T08:45:04.673Z,53.44
2022-09-07T08:47:51.593Z,53.56
2022-09-07T08:50:42.113Z,53.54
2022-09-07T08:53:14.355Z,53.50
2022-09-07T08:55:52.054Z,53.07
2022-09-07T08:58:49.565Z,52.60
2022-09-07T09:01:35.711Z,52.88
2022-09-07T09:06:11.039Z,52.81
2022-09-07T09:07:15.374Z,53.37
2022-09-07T09:09:53.772Z,52.51
2022-09-07T09:12:48.833Z,52.20
2022-09-07T09:15:18.274Z,52.76
2022-09-07T09:17:53.613Z,52.03
2022-09-07T09:20:46.703Z,52.21
2022-09-07T09:23:16.276Z,51.79
2022-09-07T09:25:52.456Z,51.67
2022-09-07T09:28:19.823Z,51.26
2022-09-07T09:30:50.507Z,50.32
2022-09-07T09:33:29.145Z,50.16
2022-09-07T09:35:59.913Z,47.89
2022-09-07T09:38:32.782Z,49.17
2022-09-07T09:41:07.332Z,48.14
2022-09-07T09:43:55.014Z,47.65
2022-09-07T09:46:29.294Z,46.88
2022-09-07T09:49:17.635Z,46.85
2022-09-07T09:54:49.046Z,47.04
2022-09-07T09:57:17.285Z,47.35
2022-09-07T10:00:03.880Z,46.81
2022-09-07T10:05:34.422Z,46.44
2022-09-07T10:08:02.173Z,46.12
2022-09-07T10:10:30.083Z,46.62
2022-09-07T10:12:57.615Z,45.46
2022-09-07T10:15:40.555Z,45.94
2022-09-07T10:18:21.476Z,45.22
2022-09-07T10:20:49.062Z,44.74
2022-09-07T10:23:24.260Z,45.30
2022-09-07T10:25:51.432Z,43.71
2022-09-07T10:28:25.150Z,43.91
2022-09-07T10:31:16.628Z,43.86
2022-09-07T10:37:01.635Z,42.27
2022-09-07T10:39:35.960Z,41.56
2022-09-07T10:42:09.220Z,42.22
2022-09-07T10:45:10.893Z,42.24
2022-09-07T10:47:37.888Z,42.89
2022-09-07T10:50:27.161Z,41.69
2022-09-07T10:52:54.040Z,41.67
2022-09-07T10:55:29.132Z,41.21
2022-09-07T10:59:01.555Z,41.37
2022-09-07T11:13:30.335Z,41.22
2022-09-07T11:16:01.590Z,41.08
2022-09-07T11:18:38.953Z,40.57
2022-09-07T11:21:13.510Z,40.74
2022-09-07T11:23:45.452Z,40.48
2022-09-07T11:26:23.612Z,40.42
2022-09-07T11:31:57.495Z,40.25
2022-09-07T11:35:07.781Z,40.34
2022-09-07T11:37:48.653Z,39.57
2022-09-07T11:40:35.433Z,39.43
2022-09-07T11:43:20.335Z,38.81
2022-09-07T11:45:54.225Z,38.74
2022-09-07T11:48:30.846Z,38.70
2022-09-07T11:51:10.733Z,38.45
2022-09-07T11:53:44.572Z,38.13
2022-09-07T11:56:22.272Z,38.23
2022-09-07T11:59:10.521Z,38.55
2022-09-07T12:02:08.236Z,37.88
2022-09-07T12:04:56.923Z,36.57
2022-09-07T12:07:35.842Z,37.21
2022-09-07T12:10:27.093Z,36.70
2022-09-07T12:13:09.193Z,36.18
2022-09-07T12:16:07.536Z,35.59
2022-09-07T12:19:05.432Z,35.86
2022-09-07T12:21:41.474Z,35.09
2022-09-07T12:24:33.192Z,35.97
2022-09-07T12:27:02.098Z,35.90
2022-09-07T12:29:30.756Z,35.12
2022-09-07T12:32:52.841Z,34.88
2022-09-07T12:34:54.031Z,34.63
2022-09-07T12:37:27.034Z,35.46
2022-09-07T12:40:30.718Z,34.86
2022-09-07T12:43:13.231Z,35.02
2022-09-07T12:45:40.225Z,35.17
2022-09-07T12:48:16.118Z,35.44
2022-09-07T12:50:52.113Z,35.99
2022-09-07T12:53:37.452Z,36.46
2022-09-07T12:56:22.713Z,38.08
2022-09-07T12:59:19.853Z,37.55
2022-09-07T13:01:47.285Z,37.11
2022-09-07T13:04:43.843Z,36.67
2022-09-07T13:07:38.601Z,36.90
2022-09-07T13:10:37.044Z,36.61
2022-09-07T13:13:15.376Z,35.97
2022-09-07T13:16:17.637Z,35.94
2022-09-07T13:18:46.574Z,35.73
2022-09-07T13:21:15.204Z,36.48
2022-09-07T13:23:45.501Z,37.15
2022-09-07T13:26:33.632Z,37.21
2022-09-07T13:29:11.052Z,37.68
2022-09-07T13:31:46.872Z,38.67
2022-09-07T13:34:32.178Z,39.36
2022-09-07T13:37:00.873Z,40.13
2022-09-07T13:39:30.223Z,42.14
2022-09-07T13:42:00.554Z,43.94
2022-09-07T13:44:33.135Z,43.67
2022-09-07T13:47:14.175Z,42.68
2022-09-07T13:49:53.721Z,43.96
2022-09-07T13:52:38.859Z,44.59
2022-09-07T13:55:25.942Z,44.98
2022-09-07T13:58:04.229Z,47.03
2022-09-07T14:00:31.500Z,49.83
2022-09-07T14:03:05.184Z,48.70
2022-09-07T14:05:32.109Z,50.58
2022-09-07T14:07:59.169Z,52.79
2022-09-07T14:10:26.930Z,51.97
2022-09-07T14:13:05.771Z,52.95
2022-09-07T14:15:39.491Z,54.85
2022-09-07T14:18:12.662Z,56.47
2022-09-07T14:20:52.141Z,57.62
2022-09-07T14:23:21.767Z,57.34
2022-09-07T14:28:38.050Z,61.56
2022-09-07T14:31:08.772Z,62.94
2022-09-07T14:33:36.000Z,63.47
2022-09-07T14:36:23.227Z,64.75
2022-09-07T14:39:07.255Z,64.51
2022-09-07T14:41:38.633Z,63.32
2022-09-07T14:44:06.656Z,64.14
2022-09-07T14:46:34.557Z,63.29
2022-09-07T14:49:15.442Z,62.85
2022-09-07T14:51:44.564Z,63.26
2022-09-07T14:54:34.247Z,63.14
2022-09-07T14:57:26.249Z,62.97
2022-09-07T14:59:54.078Z,62.97
2022-09-07T15:02:27.283Z,63.21
2022-09-07T15:05:20.959Z,63.97
2022-09-07T15:07:53.269Z,63.42
2022-09-07T15:10:23.875Z,63.29
2022-09-07T15:12:54.750Z,62.91
2022-09-07T15:15:26.234Z,62.66
2022-09-07T15:18:05.821Z,62.80
2022-09-07T15:20:43.401Z,63.59
2022-09-07T15:23:15.522Z,64.25
2022-09-07T15:25:49.669Z,63.81
2022-09-07T15:34:12.169Z,63.24
2022-09-07T15:36:41.849Z,63.81
2022-09-07T15:39:17.074Z,63.48
2022-09-07T15:41:44.869Z,63.40
2022-09-07T15:44:13.737Z,64.16
2022-09-07T15:46:42.099Z,64.76
2022-09-07T15:49:10.312Z,64.66
2022-09-07T15:54:35.283Z,63.73
2022-09-07T15:59:50.979Z,64.52
2022-09-07T16:05:08.948Z,64.25
2022-09-07T16:10:23.250Z,63.57
2022-09-07T16:13:10.928Z,63.55
2022-09-07T16:15:46.491Z,63.03
2022-09-07T16:18:17.319Z,62.73
2022-09-07T16:20:45.154Z,62.65
2022-09-07T16:23:14.912Z,63.95
2022-09-07T16:25:54.539Z,64.78
2022-09-07T16:28:21.557Z,63.80
2022-09-07T16:30:48.681Z,63.92
2022-09-07T16:33:15.676Z,63.47
2022-09-07T16:35:42.958Z,63.34
2022-09-07T16:40:58.098Z,63.76
2022-09-07T16:43:25.499Z,62.92
2022-09-07T16:46:06.580Z,63.53
2022-09-07T16:48:35.518Z,63.41
2022-09-07T16:51:05.789Z,63.45
2022-09-07T16:53:35.279Z,63.59
2022-09-07T16:56:10.651Z,64.49
2022-09-07T16:58:43.305Z,64.52
2022-09-07T17:01:12.955Z,64.85
2022-09-07T17:03:40.394Z,64.73
2022-09-07T17:06:10.215Z,64.41
2022-09-07T17:08:38.880Z,64.70
2022-09-07T17:11:08.733Z,64.46
2022-09-07T17:13:37.512Z,64.68
2022-09-07T17:16:10.752Z,64.65
2022-09-07T17:21:29.816Z,64.62
2022-09-07T17:23:56.840Z,64.67
2022-09-07T17:26:28.055Z,64.48
2022-09-07T17:29:00.334Z,64.68
2022-09-07T17:34:21.220Z,63.65
2022-09-07T17:36:49.192Z,64.16
2022-09-07T17:39:18.191Z,63.66
2022-09-07T17:41:52.637Z,63.42
2022-09-07T17:44:21.270Z,62.39
2022-09-07T17:46:48.403Z,62.18
2022-09-07T17:49:17.020Z,62.63
2022-09-07T17:51:45.769Z,62.64
2022-09-07T17:54:15.968Z,62.39
2022-09-07T17:56:44.411Z,62.03
2022-09-07T18:01:59.241Z,62.27
2022-09-07T18:04:26.320Z,61.94
2022-09-07T18:06:54.681Z,62.00
2022-09-07T18:09:22.196Z,61.24
2022-09-07T18:11:50.076Z,60.75
2022-09-07T18:14:18.570Z,61.15
2022-09-07T18:16:47.843Z,61.18
2022-09-07T18:19:16.164Z,61.25
2022-09-07T18:21:44.130Z,61.18
2022-09-07T18:24:17.147Z,60.94
2022-09-07T18:26:50.132Z,61.04
2022-09-07T18:29:36.811Z,61.22
2022-09-07T18:32:09.534Z,61.50
2022-09-07T18:34:40.636Z,60.96
2022-09-07T18:37:08.819Z,60.81
2022-09-07T18:39:36.798Z,61.26
2022-09-07T18:42:04.712Z,61.81
2022-09-07T18:47:27.822Z,60.98
2022-09-07T18:49:57.152Z,60.92
2022-09-07T18:55:11.599Z,60.81
2022-09-07T18:57:38.809Z,60.92
2022-09-07T19:00:09.174Z,60.77
2022-09-07T19:02:36.959Z,60.51
2022-09-07T19:07:51.643Z,60.27
2022-09-07T19:10:18.800Z,60.69
2022-09-07T19:12:46.389Z,61.38
2022-09-07T19:15:14.056Z,61.00
2022-09-07T19:17:41.119Z,61.07
2022-09-07T19:20:08.504Z,60.43
2022-09-07T19:22:35.469Z,60.93
2022-09-07T19:25:02.419Z,60.56
2022-09-07T19:27:29.411Z,60.12
2022-09-07T19:29:56.379Z,60.41
2022-09-07T19:32:23.480Z,60.97
2022-09-07T19:34:54.655Z,60.63
2022-09-07T19:37:26.171Z,60.62
2022-09-07T19:39:56.919Z,60.44
2022-09-07T19:42:25.105Z,60.42
2022-09-07T19:44:53.130Z,60.90
2022-09-07T19:47:21.128Z,60.22
2022-09-07T19:49:48.101Z,60.48
2022-09-07T19:52:15.620Z,60.75
2022-09-07T19:54:42.650Z,60.22
2022-09-07T19:57:09.630Z,60.17
2022-09-07T19:59:36.499Z,60.27
2022-09-07T20:02:03.499Z,60.62
2022-09-07T20:04:30.739Z,60.45
2022-09-07T20:06:57.830Z,60.17
2022-09-07T20:09:25.963Z,60.05
2022-09-07T20:11:52.773Z,61.26
2022-09-07T20:14:20.120Z,61.11
2022-09-07T20:16:47.116Z,61.62
2022-09-07T20:19:15.027Z,62.13
2022-09-07T20:21:42.725Z,62.30
2022-09-07T20:24:11.943Z,62.04
2022-09-07T20:26:38.941Z,62.15
2022-09-07T20:29:26.200Z,61.34
2022-09-07T20:31:54.472Z,61.38
2022-09-07T20:34:21.569Z,61.30
2022-09-07T20:36:52.099Z,60.94
2022-09-07T20:39:19.208Z,61.39
2022-09-07T20:41:46.824Z,61.47
2022-09-07T20:44:14.465Z,61.31
2022-09-07T20:46:41.922Z,61.49
2022-09-07T20:49:09.751Z,61.54
2022-09-07T20:51:36.674Z,61.52
2022-09-07T20:54:03.910Z,61.43
2022-09-07T20:56:31.143Z,62.38
2022-09-07T20:59:02.628Z,62.10
2022-09-07T21:01:31.687Z,61.95
2022-09-07T21:04:00.851Z,61.95
2022-09-07T21:06:29.057Z,61.86
2022-09-07T21:08:57.384Z,61.77
2022-09-07T21:11:26.846Z,61.58
2022-09-07T21:13:58.582Z,61.63
2022-09-07T21:16:26.587Z,61.91
2022-09-07T21:18:56.040Z,61.41
2022-09-07T21:21:25.161Z,61.12
2022-09-07T21:24:00.181Z,61.11
2022-09-07T21:26:28.582Z,60.88
2022-09-07T21:29:00.903Z,61.05
2022-09-07T21:31:30.056Z,60.75
2022-09-07T21:33:59.320Z,60.61
2022-09-07T21:36:27.006Z,61.21
2022-09-07T21:38:54.540Z,61.01
2022-09-07T21:41:23.712Z,61.64
2022-09-07T21:43:55.642Z,62.24
2022-09-07T21:46:22.934Z,61.96
2022-09-07T21:48:50.470Z,62.38
2022-09-07T21:51:18.700Z,62.00
2022-09-07T21:53:45.580Z,62.70
2022-09-07T21:56:15.378Z,62.12
2022-09-07T21:58:43.806Z,61.96
2022-09-07T22:01:18.131Z,61.73
2022-09-07T22:03:54.842Z,61.54
2022-09-07T22:06:22.121Z,61.79
2022-09-07T22:08:50.343Z,62.01
2022-09-07T22:11:20.500Z,61.71
2022-09-07T22:13:47.601Z,61.37
2022-09-07T22:16:15.479Z,61.71
2022-09-07T22:18:46.150Z,62.02
2022-09-07T22:21:16.451Z,62.33
2022-09-07T22:23:46.638Z,62.24
2022-09-07T22:26:14.603Z,63.04
2022-09-07T22:28:41.991Z,62.58
2022-09-07T22:31:08.955Z,62.85
2022-09-07T22:33:35.950Z,62.78
2022-09-07T22:36:33.101Z,62.81
2022-09-07T22:39:02.440Z,62.72
2022-09-07T22:41:32.580Z,62.30
2022-09-07T22:43:59.864Z,62.43
2022-09-07T22:46:29.125Z,62.57
2022-09-07T22:48:57.862Z,62.46
2022-09-07T22:51:25.439Z,62.58
2022-09-07T22:53:53.180Z,62.31
2022-09-07T22:56:25.581Z,62.52
2022-09-07T22:58:55.199Z,62.59
2022-09-07T23:01:22.401Z,62.93
2022-09-07T23:03:50.248Z,62.92
2022-09-07T23:06:26.407Z,63.29
2022-09-07T23:08:55.719Z,63.44
2022-09-07T23:11:24.477Z,63.17
2022-09-07T23:13:59.141Z,62.87
2022-09-07T23:16:28.029Z,63.21
2022-09-07T23:18:57.460Z,63.06
2022-09-07T23:21:26.399Z,63.47
2022-09-07T23:23:55.879Z,63.29
2022-09-07T23:26:24.300Z,63.33
2022-09-07T23:28:56.090Z,63.46
2022-09-07T23:31:24.799Z,63.45
2022-09-07T23:33:52.272Z,63.20
2022-09-07T23:36:20.000Z,62.81
2022-09-07T23:38:47.700Z,63.63
2022-09-07T23:41:15.901Z,63.91
2022-09-07T23:43:42.739Z,63.78
2022-09-07T23:46:10.833Z,63.63
2022-09-07T23:48:37.861Z,63.50
2022-09-07T23:51:05.541Z,63.70
2022-09-07T23:53:33.407Z,63.31
2022-09-07T23:56:01.130Z,63.29
2022-09-07T23:58:28.096Z,63.44
